createdAt,value
2022-11-22T00:01:20.300Z,95882.19
2022-11-22T00:03:48.590Z,95872.44
2022-11-22T00:06:18.241Z,95868.88
2022-11-22T00:08:46.505Z,95873.44
2022-11-22T00:11:14.693Z,95877.94
2022-11-22T00:13:43.024Z,95867.19
2022-11-22T00:16:11.385Z,95863.66
2022-11-22T00:18:39.575Z,95860.09
2022-11-22T00:21:08.149Z,95859.41
2022-11-22T00:23:37.898Z,95855.75
2022-11-22T00:26:07.169Z,95851.34
2022-11-22T00:28:35.399Z,95848.66
2022-11-22T00:31:03.631Z,95839.88
2022-11-22T00:33:31.865Z,95843.28
2022-11-22T00:36:00.102Z,95849.66
2022-11-22T00:38:28.408Z,95846.13
2022-11-22T00:40:58.149Z,95851.47
2022-11-22T00:43:26.457Z,95846.13
2022-11-22T00:45:54.694Z,95851.47
2022-11-22T00:48:22.954Z,95848.94
2022-11-22T00:50:51.333Z,95856.16
2022-11-22T00:53:19.553Z,95849.91
2022-11-22T00:55:47.801Z,95844.69
2022-11-22T00:58:17.440Z,95838.34
2022-11-22T01:00:45.700Z,95834.81
2022-11-22T01:03:14.411Z,95842.88
2022-11-22T01:05:42.693Z,95842.16
2022-11-22T01:08:11.085Z,95844.69
2022-11-22T01:10:39.307Z,95850.22
2022-11-22T01:13:10.329Z,95850.22
2022-11-22T01:15:40.066Z,95845.81
2022-11-22T01:18:08.358Z,95845.81
2022-11-22T01:20:36.580Z,95842.31
2022-11-22T01:23:04.929Z,95842.31
2022-11-22T01:25:33.287Z,95843.28
2022-11-22T01:28:01.510Z,95837.03
2022-11-22T01:30:29.878Z,95844.28
2022-11-22T01:32:59.638Z,95846.09
2022-11-22T01:35:27.885Z,95842.56
2022-11-22T01:37:56.071Z,95847.09
2022-11-22T01:40:24.367Z,95840.88
2022-11-22T01:42:53.885Z,95847.09
2022-11-22T01:45:55.714Z,95845.41
2022-11-22T01:48:52.133Z,95839.16
2022-11-22T01:51:22.869Z,95834.81
2022-11-22T01:53:51.288Z,95833.94
2022-11-22T01:56:19.510Z,95841.16
2022-11-22T01:58:49.358Z,95842.00
2022-11-22T02:01:17.737Z,95839.47
2022-11-22T02:03:48.192Z,95849.06
2022-11-22T02:06:16.567Z,95844.53
2022-11-22T02:08:48.831Z,95848.22
2022-11-22T02:11:17.107Z,95842.84
2022-11-22T02:13:45.380Z,95839.31
2022-11-22T02:16:13.705Z,95837.59
2022-11-22T02:18:41.950Z,95830.41
2022-11-22T02:21:11.825Z,95835.91
2022-11-22T02:23:45.992Z,95834.09
2022-11-22T02:26:16.261Z,95827.88
2022-11-22T02:28:44.545Z,95809.19
2022-11-22T02:31:40.274Z,95807.50
2022-11-22T02:34:08.657Z,95805.81
2022-11-22T02:36:39.879Z,95802.25
2022-11-22T02:39:08.219Z,95805.66
2022-11-22T02:41:38.072Z,95808.50
2022-11-22T02:44:07.646Z,95794.22
2022-11-22T02:46:35.850Z,95801.41
2022-11-22T02:49:04.135Z,95800.56
2022-11-22T02:51:32.533Z,95804.94
2022-11-22T02:54:00.858Z,95813.16
2022-11-22T02:56:29.087Z,95802.41
2022-11-22T02:58:58.767Z,95789.09
2022-11-22T03:01:26.994Z,95789.97
2022-11-22T03:03:55.339Z,95781.91
2022-11-22T03:06:23.545Z,95779.22
2022-11-22T03:08:56.137Z,95783.72
2022-11-22T03:11:25.036Z,95780.22
2022-11-22T03:13:53.305Z,95779.34
2022-11-22T03:16:23.195Z,95764.22
2022-11-22T03:18:51.561Z,95773.13
2022-11-22T03:21:19.781Z,95773.28
2022-11-22T03:23:48.045Z,95770.59
2022-11-22T03:26:16.269Z,95758.13
2022-11-22T03:28:44.550Z,95745.56
2022-11-22T03:31:12.774Z,95750.94
2022-11-22T03:33:42.556Z,95748.25
2022-11-22T03:36:10.746Z,95737.50
2022-11-22T03:38:39.001Z,95739.34
2022-11-22T03:41:07.192Z,95746.56
2022-11-22T03:43:35.481Z,95742.16
2022-11-22T03:46:03.590Z,95733.13
2022-11-22T03:48:31.973Z,95733.41
2022-11-22T03:51:06.348Z,95734.25
2022-11-22T03:53:34.745Z,95723.53
2022-11-22T03:56:02.966Z,95723.53
2022-11-22T03:58:31.396Z,95723.53
2022-11-22T04:00:59.819Z,95725.34
2022-11-22T04:03:28.345Z,95721.81
2022-11-22T04:05:56.624Z,95726.34
2022-11-22T04:08:26.300Z,95729.03
2022-11-22T04:10:54.760Z,95728.19
2022-11-22T04:13:43.206Z,95718.41
2022-11-22T04:16:10.430Z,95720.28
2022-11-22T04:18:38.849Z,95726.47
2022-11-22T04:21:24.667Z,95720.28
2022-11-22T04:24:08.234Z,95715.88
2022-11-22T04:26:36.558Z,95710.66
2022-11-22T04:29:10.178Z,95714.19
2022-11-22T04:31:56.511Z,95706.13
2022-11-22T04:34:25.225Z,95714.19
2022-11-22T04:36:53.416Z,95714.19
2022-11-22T04:39:23.201Z,95713.34
2022-11-22T04:42:13.921Z,95717.84
2022-11-22T04:44:41.240Z,95711.63
2022-11-22T04:47:09.565Z,95706.25
2022-11-22T04:49:37.908Z,95713.50
2022-11-22T04:52:23.665Z,95710.81
2022-11-22T04:54:53.461Z,95699.22
2022-11-22T04:57:21.762Z,95698.34
2022-11-22T04:59:50.006Z,95700.06
2022-11-22T05:02:18.260Z,95688.63
2022-11-22T05:04:50.652Z,95691.31
2022-11-22T05:07:19.499Z,95694.81
2022-11-22T05:09:47.962Z,95692.28
2022-11-22T05:12:17.752Z,95693.13
2022-11-22T05:14:45.996Z,95690.44
2022-11-22T05:17:14.326Z,95683.34
2022-11-22T05:19:48.900Z,95677.00
2022-11-22T05:22:17.952Z,95683.25
2022-11-22T05:24:45.352Z,95678.84
2022-11-22T05:27:13.597Z,95679.69
2022-11-22T05:29:43.500Z,95683.25
2022-11-22T05:32:12.095Z,95662.72
2022-11-22T05:34:40.370Z,95661.88
2022-11-22T05:37:08.667Z,95668.09
2022-11-22T05:39:36.853Z,95677.00
2022-11-22T05:42:06.083Z,95669.81
2022-11-22T05:44:34.302Z,95672.50
2022-11-22T05:47:04.057Z,95682.25
2022-11-22T05:49:33.393Z,95683.94
2022-11-22T05:52:01.693Z,95689.31
2022-11-22T05:54:30.077Z,95690.28
2022-11-22T05:56:58.270Z,95692.97
2022-11-22T05:59:26.564Z,95695.66
2022-11-22T06:01:54.839Z,95691.16
2022-11-22T06:04:24.674Z,95682.09
2022-11-22T06:06:52.909Z,95665.16
2022-11-22T06:09:21.177Z,95679.41
2022-11-22T06:11:49.557Z,95700.75
2022-11-22T06:14:17.901Z,95696.22
2022-11-22T06:16:46.139Z,95696.22
2022-11-22T06:19:14.492Z,95706.00
2022-11-22T06:21:44.209Z,95689.88
2022-11-22T06:24:12.644Z,95689.88
2022-11-22T06:26:40.945Z,95689.88
2022-11-22T06:29:09.158Z,95699.63
2022-11-22T06:31:37.437Z,95692.41
2022-11-22T06:34:06.513Z,95692.41
2022-11-22T06:36:35.553Z,95686.88
2022-11-22T06:39:33.188Z,95689.56
2022-11-22T06:42:03.000Z,95683.38
2022-11-22T06:44:31.275Z,95683.22
2022-11-22T06:46:59.622Z,95680.53
2022-11-22T06:49:28.013Z,95683.06
2022-11-22T06:51:56.485Z,95690.28
2022-11-22T06:54:26.312Z,95691.28
2022-11-22T06:56:54.600Z,95692.97
2022-11-22T06:59:22.903Z,95685.91
2022-11-22T07:01:51.457Z,95691.13
2022-11-22T07:04:20.824Z,95698.34
2022-11-22T07:06:49.118Z,95692.25
2022-11-22T07:09:17.421Z,95678.84
2022-11-22T07:11:47.152Z,95681.53
2022-11-22T07:14:15.409Z,95685.06
2022-11-22T07:16:43.601Z,95687.75
2022-11-22T07:19:11.882Z,95692.25
2022-11-22T07:21:40.074Z,95687.75
2022-11-22T07:24:09.823Z,95679.69
2022-11-22T07:26:38.235Z,95675.31
2022-11-22T07:29:07.958Z,95678.00
2022-11-22T07:31:36.302Z,95680.69
2022-11-22T07:34:04.602Z,95670.78
2022-11-22T07:36:32.918Z,95669.09
2022-11-22T07:39:01.815Z,95664.69
2022-11-22T07:41:29.980Z,95676.44
2022-11-22T07:43:58.592Z,95680.81
2022-11-22T07:46:31.435Z,95682.69
2022-11-22T07:49:00.267Z,95670.22
2022-11-22T07:51:28.549Z,95682.69
2022-11-22T07:53:56.896Z,95687.19
2022-11-22T07:56:25.346Z,95690.72
2022-11-22T07:58:54.132Z,95686.34
2022-11-22T08:01:23.755Z,95683.66
2022-11-22T08:03:53.655Z,95671.06
2022-11-22T08:06:21.974Z,95676.44
2022-11-22T08:08:50.391Z,95678.44
2022-11-22T08:11:18.589Z,95686.34
2022-11-22T08:13:46.889Z,95673.91
2022-11-22T08:16:16.274Z,95680.09
2022-11-22T08:18:47.579Z,95676.59
2022-11-22T08:21:17.924Z,95681.97
2022-11-22T08:23:46.479Z,95678.44
2022-11-22T08:26:15.781Z,95686.47
2022-11-22T08:28:44.691Z,95686.47
2022-11-22T08:31:14.175Z,95692.72
2022-11-22T08:33:42.716Z,95686.47
2022-11-22T08:36:11.086Z,95683.78
2022-11-22T08:38:40.737Z,95687.34
2022-11-22T08:41:08.984Z,95691.84
2022-11-22T08:43:37.356Z,95681.97
2022-11-22T08:46:05.845Z,95689.16
2022-11-22T08:48:34.988Z,95686.75
2022-11-22T08:51:03.901Z,95696.53
2022-11-22T08:53:33.181Z,95689.16
2022-11-22T08:56:03.570Z,95693.41
2022-11-22T08:58:32.326Z,95691.56
2022-11-22T09:01:05.495Z,95690.59
2022-11-22T09:03:33.896Z,95695.81
2022-11-22T09:08:58.619Z,95701.88
2022-11-22T09:11:38.903Z,95699.19
2022-11-22T09:14:07.386Z,95711.66
2022-11-22T09:16:35.664Z,95697.22
2022-11-22T09:19:03.956Z,95694.38
2022-11-22T09:21:32.266Z,95691.84
2022-11-22T09:24:00.544Z,95699.91
2022-11-22T09:26:28.797Z,95702.75
2022-11-22T09:28:59.272Z,95703.59
2022-11-22T09:31:27.619Z,95701.72
2022-11-22T09:33:56.145Z,95696.34
2022-11-22T09:36:26.488Z,95688.31
2022-11-22T09:38:54.825Z,95684.78
2022-11-22T09:41:51.561Z,95690.44
2022-11-22T09:44:24.555Z,95679.13
2022-11-22T09:46:54.089Z,95679.41
2022-11-22T09:49:30.038Z,95674.34
2022-11-22T09:52:04.817Z,95676.31
2022-11-22T09:54:38.272Z,95667.56
2022-11-22T09:57:06.648Z,95657.78
2022-11-22T09:59:36.870Z,95653.56
2022-11-22T10:02:18.049Z,95647.50
2022-11-22T10:04:48.999Z,95643.09
2022-11-22T10:07:19.322Z,95644.88
2022-11-22T10:09:49.477Z,95645.19
2022-11-22T10:12:19.576Z,95644.34
2022-11-22T10:14:53.661Z,95630.75
2022-11-22T10:17:29.597Z,95617.22
2022-11-22T10:20:03.224Z,95615.28
2022-11-22T10:22:31.596Z,95599.88
2022-11-22T10:25:00.786Z,95589.94
2022-11-22T10:27:30.118Z,95591.50
2022-11-22T10:30:01.516Z,95579.78
2022-11-22T10:32:31.382Z,95573.25
2022-11-22T10:35:10.345Z,95559.84
2022-11-22T10:37:41.921Z,95562.25
2022-11-22T10:40:15.292Z,95545.13
2022-11-22T10:42:55.164Z,95532.41
2022-11-22T10:45:27.293Z,95524.22
2022-11-22T10:48:01.111Z,95524.06
2022-11-22T10:50:33.616Z,95516.88
2022-11-22T10:53:03.345Z,95515.00
2022-11-22T10:55:43.070Z,95515.72
2022-11-22T10:58:16.876Z,95507.53
2022-11-22T11:00:48.451Z,95498.47
2022-11-22T11:03:27.492Z,95481.38
2022-11-22T11:11:35.386Z,95472.31
2022-11-22T11:14:06.028Z,95459.03
2022-11-22T11:16:36.974Z,95457.03
2022-11-22T11:19:12.603Z,95456.72
2022-11-22T11:21:40.910Z,95445.00
2022-11-22T11:24:13.560Z,95450.38
2022-11-22T11:26:42.809Z,95450.38
2022-11-22T11:29:37.614Z,95464.66
2022-11-22T11:32:13.461Z,95460.09
2022-11-22T11:34:43.388Z,95460.09
2022-11-22T11:37:20.516Z,95471.72
2022-11-22T11:39:48.838Z,95470.03
2022-11-22T11:42:25.338Z,95480.91
2022-11-22T11:44:53.673Z,95487.56
2022-11-22T11:47:33.559Z,95488.75
2022-11-22T11:50:01.842Z,95485.81
2022-11-22T11:52:31.720Z,95480.28
2022-11-22T11:55:01.073Z,95479.16
2022-11-22T11:57:29.974Z,95472.78
2022-11-22T11:59:59.318Z,95469.13
2022-11-22T12:02:31.339Z,95468.25
2022-11-22T12:05:01.116Z,95476.16
2022-11-22T12:07:31.122Z,95485.94
2022-11-22T12:09:59.380Z,95482.66
2022-11-22T12:12:39.735Z,95468.72
2022-11-22T12:15:13.872Z,95469.56
2022-11-22T12:17:51.273Z,95468.31
2022-11-22T12:20:21.855Z,95471.69
2022-11-22T12:22:57.116Z,95475.63
2022-11-22T12:25:33.387Z,95478.91
2022-11-22T12:28:04.777Z,95485.66
2022-11-22T12:30:33.284Z,95493.16
2022-11-22T12:33:04.104Z,95494.44
2022-11-22T12:35:44.375Z,95500.50
2022-11-22T12:38:14.350Z,95502.06
2022-11-22T12:40:43.384Z,95499.22
2022-11-22T12:43:15.713Z,95499.22
2022-11-22T12:45:44.842Z,95506.44
2022-11-22T12:48:17.847Z,95523.25
2022-11-22T12:50:47.313Z,95518.72
2022-11-22T12:53:16.922Z,95516.91
2022-11-22T12:55:46.392Z,95513.09
2022-11-22T12:58:19.892Z,95525.50
2022-11-22T13:00:55.719Z,95531.31
2022-11-22T13:03:28.734Z,95536.69
2022-11-22T13:05:58.483Z,95546.44
2022-11-22T13:08:29.261Z,95545.47
2022-11-22T13:10:59.296Z,95547.16
2022-11-22T13:13:29.458Z,95551.53
2022-11-22T13:15:58.169Z,95557.72
2022-11-22T13:18:28.832Z,95560.28
2022-11-22T13:20:59.497Z,95567.34
2022-11-22T13:23:36.924Z,95565.50
2022-11-22T13:26:11.701Z,95571.75
2022-11-22T13:28:42.890Z,95575.25
2022-11-22T13:31:18.602Z,95577.09
2022-11-22T13:33:56.661Z,95591.34
2022-11-22T13:36:46.052Z,95594.03
2022-11-22T13:39:17.811Z,95586.00
2022-11-22T13:41:52.698Z,95598.59
2022-11-22T13:44:46.500Z,95587.00
2022-11-22T13:47:36.010Z,95584.31
2022-11-22T13:50:20.773Z,95593.22
2022-11-22T13:52:52.931Z,95598.59
2022-11-22T13:55:29.098Z,95594.03
2022-11-22T13:57:57.413Z,95593.06
2022-11-22T14:00:46.463Z,95587.69
2022-11-22T14:03:41.191Z,95587.53
2022-11-22T14:06:31.869Z,95575.94
2022-11-22T14:09:17.893Z,95583.03
2022-11-22T14:11:50.730Z,95577.50
2022-11-22T14:14:20.600Z,95569.59
2022-11-22T14:16:53.440Z,95571.16
2022-11-22T14:19:43.845Z,95563.94
2022-11-22T14:22:19.812Z,95561.25
2022-11-22T14:25:17.944Z,95561.25
2022-11-22T14:27:50.080Z,95563.94
2022-11-22T14:30:19.518Z,95562.09
2022-11-22T14:32:58.076Z,95560.25
2022-11-22T14:35:31.399Z,95560.25
2022-11-22T14:38:06.281Z,95549.53
2022-11-22T14:40:36.479Z,95554.91
2022-11-22T14:43:21.733Z,95544.16
2022-11-22T14:45:51.767Z,95552.91
2022-11-22T14:48:21.197Z,95548.41
2022-11-22T14:50:52.060Z,95550.22
2022-11-22T14:53:26.384Z,95544.16
2022-11-22T14:55:57.850Z,95545.13
2022-11-22T14:58:28.537Z,95546.84
2022-11-22T15:01:12.169Z,95547.00
2022-11-22T15:09:16.476Z,95545.13
2022-11-22T15:09:21.647Z,95551.34
2022-11-22T15:10:24.525Z,95548.66
2022-11-22T15:13:22.545Z,95551.34
2022-11-22T15:59:10.150Z,95579.63
2022-11-22T16:01:40.207Z,95577.63
2022-11-22T16:04:21.233Z,95569.72
2022-11-22T16:06:51.892Z,95573.13
2022-11-22T16:09:25.033Z,95581.16
2022-11-22T16:12:01.666Z,95575.81
2022-11-22T16:14:46.548Z,95586.38
2022-11-22T16:17:26.028Z,95589.94
2022-11-22T16:20:16.309Z,95587.25
2022-11-22T16:22:44.544Z,95591.75
2022-11-22T16:25:24.226Z,95589.94
2022-11-22T16:27:52.509Z,95586.25
2022-11-22T16:30:23.628Z,95588.91
2022-11-22T16:32:56.540Z,95588.91
2022-11-22T16:35:30.069Z,95590.63
2022-11-22T16:37:58.579Z,95589.78
2022-11-22T16:40:26.776Z,95588.81
2022-11-22T16:42:55.046Z,95601.38
2022-11-22T16:45:23.655Z,95597.69
2022-11-22T16:48:16.673Z,95599.53
2022-11-22T16:50:44.496Z,95604.78
2022-11-22T16:53:13.652Z,95601.94
2022-11-22T16:55:42.143Z,95606.44
2022-11-22T16:58:17.899Z,95603.75
2022-11-22T17:00:46.262Z,95603.75
2022-11-22T17:03:16.172Z,95604.63
2022-11-22T17:05:46.069Z,95604.63
2022-11-22T17:08:16.134Z,95595.56
2022-11-22T17:10:47.432Z,95599.09
2022-11-22T17:13:20.611Z,95601.78
2022-11-22T17:15:49.093Z,95601.78
2022-11-22T17:18:17.318Z,95602.63
2022-11-22T17:20:47.079Z,95602.47
2022-11-22T17:23:18.474Z,95603.47
2022-11-22T17:25:46.799Z,95597.09
2022-11-22T17:28:14.999Z,95596.97
2022-11-22T17:30:43.308Z,95591.63
2022-11-22T17:33:11.956Z,95586.09
2022-11-22T17:35:40.280Z,95584.38
2022-11-22T17:38:10.117Z,95580.72
2022-11-22T17:40:38.525Z,95582.38
2022-11-22T17:43:06.737Z,95578.88
2022-11-22T17:45:40.326Z,95573.34
2022-11-22T17:48:08.609Z,95582.28
2022-11-22T17:50:39.538Z,95576.75
2022-11-22T17:53:09.685Z,95575.72
2022-11-22T17:56:08.548Z,95573.03
2022-11-22T17:58:27.674Z,95577.44
2022-11-22T18:01:03.597Z,95576.44
2022-11-22T18:03:31.903Z,95569.22
2022-11-22T18:06:00.430Z,95568.25
2022-11-22T18:08:30.185Z,95561.00
2022-11-22T18:10:59.792Z,95564.28
2022-11-22T18:13:28.104Z,95562.13
2022-11-22T18:16:01.695Z,95553.91
2022-11-22T18:21:20.529Z,95551.66
2022-11-22T18:23:50.191Z,95549.78
2022-11-22T18:31:55.442Z,95543.97
2022-11-22T18:34:23.750Z,95549.19
2022-11-22T18:37:00.450Z,95544.69
2022-11-22T18:39:32.132Z,95542.00
2022-11-22T18:42:00.749Z,95539.16
2022-11-22T18:44:29.231Z,95538.28
2022-11-22T18:46:57.549Z,95540.00
2022-11-22T18:49:25.779Z,95536.28
2022-11-22T18:51:54.185Z,95534.47
2022-11-22T18:54:22.970Z,95542.53
2022-11-22T18:56:52.959Z,95533.63
2022-11-22T18:59:21.242Z,95535.31
2022-11-22T19:01:49.498Z,95530.78
2022-11-22T19:04:17.920Z,95531.63
2022-11-22T19:06:46.145Z,95533.34
2022-11-22T19:09:14.432Z,95531.50
2022-11-22T19:11:42.828Z,95535.84
2022-11-22T19:14:12.708Z,95533.16
2022-11-22T19:16:41.063Z,95540.25
2022-11-22T19:19:11.508Z,95538.31
2022-11-22T19:21:39.872Z,95536.31
2022-11-22T19:24:08.683Z,95547.88
2022-11-22T19:26:40.383Z,95549.59
2022-11-22T19:29:08.857Z,95537.81
2022-11-22T19:31:38.569Z,95542.22
2022-11-22T19:34:07.049Z,95541.38
2022-11-22T19:36:36.304Z,95549.44
2022-11-22T19:39:05.560Z,95542.22
2022-11-22T19:41:33.943Z,95548.44
2022-11-22T19:44:02.359Z,95545.78
2022-11-22T19:46:30.674Z,95551.97
2022-11-22T19:49:01.681Z,95551.16
2022-11-22T19:51:30.976Z,95555.66
2022-11-22T19:54:00.189Z,95555.66
2022-11-22T19:56:30.391Z,95551.16
2022-11-22T19:58:59.767Z,95551.97
2022-11-22T20:01:29.081Z,95549.28
2022-11-22T20:03:58.721Z,95548.28
2022-11-22T20:06:28.969Z,95547.44
2022-11-22T20:09:01.658Z,95547.28
2022-11-22T20:11:30.285Z,95549.16
2022-11-22T20:13:58.523Z,95541.78
2022-11-22T20:16:27.473Z,95539.09
2022-11-22T20:18:55.757Z,95540.94
2022-11-22T20:21:24.129Z,95548.84
2022-11-22T20:23:53.936Z,95553.50
2022-11-22T20:26:22.624Z,95554.53
2022-11-22T20:28:55.733Z,95551.16
2022-11-22T20:31:24.113Z,95550.44
2022-11-22T20:33:52.981Z,95547.75
2022-11-22T20:36:21.956Z,95556.81
2022-11-22T20:38:50.179Z,95555.13
2022-11-22T20:41:21.600Z,95554.44
2022-11-22T20:43:50.716Z,95557.13
2022-11-22T20:46:19.757Z,95563.47
2022-11-22T20:48:48.242Z,95566.28
2022-11-22T20:51:17.582Z,95564.56
2022-11-22T20:53:46.107Z,95567.41
2022-11-22T20:56:14.405Z,95570.09
2022-11-22T20:58:44.208Z,95567.41
2022-11-22T21:01:14.184Z,95563.88
2022-11-22T21:03:42.494Z,95570.97
2022-11-22T21:06:11.313Z,95577.31
2022-11-22T21:08:39.621Z,95576.50
2022-11-22T21:11:08.858Z,95574.78
2022-11-22T21:13:37.262Z,95583.84
2022-11-22T21:16:21.458Z,95593.91
2022-11-22T21:18:51.736Z,95582.31
2022-11-22T21:21:23.163Z,95583.28
2022-11-22T21:23:51.845Z,95585.16
2022-11-22T21:26:20.080Z,95588.81
2022-11-22T21:28:48.509Z,95588.09
2022-11-22T21:31:18.204Z,95588.09
2022-11-22T21:33:46.879Z,95578.38
2022-11-22T21:36:15.295Z,95582.88
2022-11-22T21:38:43.563Z,95597.34
2022-11-22T21:41:38.911Z,95589.41
2022-11-22T21:44:02.702Z,95589.56
2022-11-22T21:46:32.365Z,95587.88
2022-11-22T21:49:00.731Z,95590.69
2022-11-22T21:51:29.008Z,95593.38
2022-11-22T21:53:58.847Z,95585.47
2022-11-22T21:56:27.341Z,95594.53
2022-11-22T21:58:55.908Z,95588.31
2022-11-22T22:01:24.426Z,95596.53
2022-11-22T22:03:54.302Z,95596.53
2022-11-22T22:06:22.657Z,95595.66
2022-11-22T22:08:50.953Z,95597.50
2022-11-22T22:11:19.261Z,95587.75
2022-11-22T22:13:47.503Z,95592.44
2022-11-22T22:16:19.200Z,95595.94
2022-11-22T22:18:47.785Z,95599.78
2022-11-22T22:21:18.135Z,95605.16
2022-11-22T22:23:46.568Z,95607.97
2022-11-22T22:26:15.628Z,95606.28
2022-11-22T22:28:45.130Z,95608.97
2022-11-22T22:31:14.680Z,95604.47
2022-11-22T22:33:43.224Z,95615.22
2022-11-22T22:36:11.785Z,95601.63
2022-11-22T22:38:41.909Z,95603.44
2022-11-22T22:41:11.923Z,95609.69
2022-11-22T22:43:41.041Z,95608.81
2022-11-22T22:46:11.361Z,95613.34
2022-11-22T22:48:39.800Z,95612.63
2022-11-22T22:51:08.615Z,95606.44
2022-11-22T22:53:36.961Z,95614.63
2022-11-22T22:56:08.121Z,95617.31
2022-11-22T22:58:37.179Z,95620.16
2022-11-22T23:01:06.865Z,95616.59
2022-11-22T23:03:36.048Z,95623.84
2022-11-22T23:06:08.220Z,95619.59
2022-11-22T23:08:36.629Z,95622.28
2022-11-22T23:11:07.714Z,95628.63
2022-11-22T23:13:36.339Z,95630.50
2022-11-22T23:16:04.843Z,95631.47
2022-11-22T23:18:35.686Z,95629.78
2022-11-22T23:21:04.284Z,95626.25
2022-11-22T23:23:32.587Z,95616.47
2022-11-22T23:26:02.976Z,95618.34
2022-11-22T23:28:33.755Z,95620.19
2022-11-22T23:31:06.466Z,95619.31
2022-11-22T23:33:34.993Z,95623.00
2022-11-22T23:36:04.737Z,95618.78
2022-11-22T23:38:33.004Z,95624.16
2022-11-22T23:41:01.241Z,95620.59
2022-11-22T23:43:29.692Z,95611.69
2022-11-22T23:45:59.896Z,95618.78
2022-11-22T23:48:28.327Z,95610.72
2022-11-22T23:50:56.589Z,95609.84
2022-11-22T23:53:24.916Z,95616.09
2022-11-22T23:55:53.077Z,95602.81
2022-11-22T23:58:21.255Z,95605.34
